sensor_id;sensor_type;location;lat;lon;timestamp;P1;durP1;ratioP1;P2;durP2;ratioP2
17997;SDS011;9124;48.144;17.098;2023-07-24T00:03:29;8.13;;;7.32;;
17997;SDS011;9124;48.144;17.098;2023-07-24T00:07:56;13.73;;;7.82;;
17997;SDS011;9124;48.144;17.098;2023-07-24T00:12:22;8.15;;;7.45;;
17997;SDS011;9124;48.144;17.098;2023-07-24T00:16:50;11.65;;;8.20;;
17997;SDS011;9124;48.144;17.098;2023-07-24T00:21:16;8.65;;;7.93;;
17997;SDS011;9124;48.144;17.098;2023-07-24T00:25:43;9.30;;;8.52;;
17997;SDS011;9124;48.144;17.098;2023-07-24T00:30:09;9.13;;;8.43;;
17997;SDS011;9124;48.144;17.098;2023-07-24T00:34:37;9.20;;;8.50;;
17997;SDS011;9124;48.144;17.098;2023-07-24T00:39:03;8.88;;;8.27;;
17997;SDS011;9124;48.144;17.098;2023-07-24T00:43:30;9.50;;;8.73;;
17997;SDS011;9124;48.144;17.098;2023-07-24T00:47:57;14.63;;;8.05;;
17997;SDS011;9124;48.144;17.098;2023-07-24T00:52:25;10.82;;;9.00;;
17997;SDS011;9124;48.144;17.098;2023-07-24T00:56:52;11.35;;;8.68;;
17997;SDS011;9124;48.144;17.098;2023-07-24T01:01:19;9.95;;;9.05;;
17997;SDS011;9124;48.144;17.098;2023-07-24T01:05:46;10.40;;;8.20;;
17997;SDS011;9124;48.144;17.098;2023-07-24T01:10:13;13.52;;;9.15;;
17997;SDS011;9124;48.144;17.098;2023-07-24T01:14:47;9.60;;;8.80;;
17997;SDS011;9124;48.144;17.098;2023-07-24T01:19:36;9.82;;;8.52;;
17997;SDS011;9124;48.144;17.098;2023-07-24T01:24:30;10.20;;;9.20;;
17997;SDS011;9124;48.144;17.098;2023-07-24T01:29:09;10.00;;;9.25;;
17997;SDS011;9124;48.144;17.098;2023-07-24T01:33:36;9.20;;;8.52;;
17997;SDS011;9124;48.144;17.098;2023-07-24T01:38:02;10.95;;;9.85;;
17997;SDS011;9124;48.144;17.098;2023-07-24T01:42:30;9.65;;;8.75;;
17997;SDS011;9124;48.144;17.098;2023-07-24T01:46:57;11.00;;;9.80;;
17997;SDS011;9124;48.144;17.098;2023-07-24T01:51:23;10.70;;;9.75;;
17997;SDS011;9124;48.144;17.098;2023-07-24T01:55:49;16.27;;;9.75;;
17997;SDS011;9124;48.144;17.098;2023-07-24T02:00:16;11.07;;;9.52;;
17997;SDS011;9124;48.144;17.098;2023-07-24T02:04:43;12.30;;;10.65;;
17997;SDS011;9124;48.144;17.098;2023-07-24T02:09:10;10.82;;;9.90;;
17997;SDS011;9124;48.144;17.098;2023-07-24T02:13:36;11.48;;;10.57;;
17997;SDS011;9124;48.144;17.098;2023-07-24T02:18:03;11.00;;;10.07;;
17997;SDS011;9124;48.144;17.098;2023-07-24T02:22:30;10.57;;;9.73;;
17997;SDS011;9124;48.144;17.098;2023-07-24T02:26:56;11.10;;;10.25;;
17997;SDS011;9124;48.144;17.098;2023-07-24T02:31:23;11.65;;;9.80;;
17997;SDS011;9124;48.144;17.098;2023-07-24T02:35:51;10.40;;;9.57;;
17997;SDS011;9124;48.144;17.098;2023-07-24T02:40:18;11.35;;;10.43;;
17997;SDS011;9124;48.144;17.098;2023-07-24T02:44:46;11.38;;;10.23;;
17997;SDS011;9124;48.144;17.098;2023-07-24T02:49:13;11.43;;;10.60;;
17997;SDS011;9124;48.144;17.098;2023-07-24T02:53:39;11.50;;;10.57;;
17997;SDS011;9124;48.144;17.098;2023-07-24T02:58:06;12.15;;;10.90;;
17997;SDS011;9124;48.144;17.098;2023-07-24T03:02:32;11.50;;;10.60;;
17997;SDS011;9124;48.144;17.098;2023-07-24T03:06:59;12.75;;;11.82;;
17997;SDS011;9124;48.144;17.098;2023-07-24T03:11:25;16.15;;;14.75;;
17997;SDS011;9124;48.144;17.098;2023-07-24T03:20:57;17.60;;;15.68;;
17997;SDS011;9124;48.144;17.098;2023-07-24T03:25:25;19.83;;;17.85;;
17997;SDS011;9124;48.144;17.098;2023-07-24T03:29:51;21.38;;;16.95;;
17997;SDS011;9124;48.144;17.098;2023-07-24T03:34:18;18.45;;;16.63;;
17997;SDS011;9124;48.144;17.098;2023-07-24T03:38:45;17.02;;;15.63;;
17997;SDS011;9124;48.144;17.098;2023-07-24T03:43:11;18.40;;;14.98;;
17997;SDS011;9124;48.144;17.098;2023-07-24T03:47:37;14.90;;;13.52;;
17997;SDS011;9124;48.144;17.098;2023-07-24T03:52:04;15.75;;;14.27;;
17997;SDS011;9124;48.144;17.098;2023-07-24T03:56:31;14.95;;;13.52;;
17997;SDS011;9124;48.144;17.098;2023-07-24T04:00:57;16.85;;;15.48;;
17997;SDS011;9124;48.144;17.098;2023-07-24T04:05:24;17.65;;;16.13;;
17997;SDS011;9124;48.144;17.098;2023-07-24T04:09:50;18.00;;;16.30;;
17997;SDS011;9124;48.144;17.098;2023-07-24T04:14:16;17.52;;;16.13;;
17997;SDS011;9124;48.144;17.098;2023-07-24T04:18:43;14.75;;;13.52;;
17997;SDS011;9124;48.144;17.098;2023-07-24T04:23:10;17.73;;;16.20;;
17997;SDS011;9124;48.144;17.098;2023-07-24T04:27:36;17.90;;;16.40;;
17997;SDS011;9124;48.144;17.098;2023-07-24T04:32:06;20.95;;;16.27;;
17997;SDS011;9124;48.144;17.098;2023-07-24T04:36:32;18.35;;;16.73;;
17997;SDS011;9124;48.144;17.098;2023-07-24T04:41:02;15.43;;;13.98;;
17997;SDS011;9124;48.144;17.098;2023-07-24T04:45:28;18.27;;;15.13;;
17997;SDS011;9124;48.144;17.098;2023-07-24T04:49:55;16.23;;;14.80;;
17997;SDS011;9124;48.144;17.098;2023-07-24T04:54:21;15.05;;;13.63;;
17997;SDS011;9124;48.144;17.098;2023-07-24T04:58:48;15.88;;;14.60;;
17997;SDS011;9124;48.144;17.098;2023-07-24T05:03:14;18.63;;;16.73;;
17997;SDS011;9124;48.144;17.098;2023-07-24T05:07:43;19.48;;;15.95;;
17997;SDS011;9124;48.144;17.098;2023-07-24T05:12:09;16.65;;;14.95;;
17997;SDS011;9124;48.144;17.098;2023-07-24T05:16:36;15.38;;;13.05;;
17997;SDS011;9124;48.144;17.098;2023-07-24T05:21:02;19.50;;;15.60;;
17997;SDS011;9124;48.144;17.098;2023-07-24T05:25:29;17.77;;;14.80;;
17997;SDS011;9124;48.144;17.098;2023-07-24T05:29:55;19.73;;;16.75;;
17997;SDS011;9124;48.144;17.098;2023-07-24T05:34:21;26.98;;;16.67;;
17997;SDS011;9124;48.144;17.098;2023-07-24T05:38:51;30.25;;;21.88;;
17997;SDS011;9124;48.144;17.098;2023-07-24T05:43:18;27.98;;;21.90;;
17997;SDS011;9124;48.144;17.098;2023-07-24T05:47:45;39.17;;;23.98;;
17997;SDS011;9124;48.144;17.098;2023-07-24T05:52:11;36.45;;;23.00;;
17997;SDS011;9124;48.144;17.098;2023-07-24T05:56:40;33.72;;;24.10;;
17997;SDS011;9124;48.144;17.098;2023-07-24T06:01:06;33.72;;;21.67;;
17997;SDS011;9124;48.144;17.098;2023-07-24T06:05:35;27.80;;;21.83;;
17997;SDS011;9124;48.144;17.098;2023-07-24T06:10:02;18.85;;;15.85;;
17997;SDS011;9124;48.144;17.098;2023-07-24T06:14:28;21.90;;;18.92;;
17997;SDS011;9124;48.144;17.098;2023-07-24T06:18:55;25.70;;;18.65;;
17997;SDS011;9124;48.144;17.098;2023-07-24T06:23:21;27.60;;;20.35;;
17997;SDS011;9124;48.144;17.098;2023-07-24T06:27:47;22.13;;;18.10;;
17997;SDS011;9124;48.144;17.098;2023-07-24T06:32:14;30.35;;;19.95;;
17997;SDS011;9124;48.144;17.098;2023-07-24T06:36:40;33.15;;;20.75;;
17997;SDS011;9124;48.144;17.098;2023-07-24T06:41:07;25.30;;;20.15;;
17997;SDS011;9124;48.144;17.098;2023-07-24T06:45:33;24.98;;;21.60;;
17997;SDS011;9124;48.144;17.098;2023-07-24T06:55:00;25.67;;;18.15;;
17997;SDS011;9124;48.144;17.098;2023-07-24T07:04:18;23.20;;;19.58;;
17997;SDS011;9124;48.144;17.098;2023-07-24T07:08:44;26.50;;;18.98;;
17997;SDS011;9124;48.144;17.098;2023-07-24T07:13:11;21.95;;;15.25;;
17997;SDS011;9124;48.144;17.098;2023-07-24T07:17:37;26.13;;;16.83;;
17997;SDS011;9124;48.144;17.098;2023-07-24T07:22:04;16.38;;;14.85;;
17997;SDS011;9124;48.144;17.098;2023-07-24T07:26:30;13.07;;;12.18;;
17997;SDS011;9124;48.144;17.098;2023-07-24T07:30:57;9.60;;;8.77;;
17997;SDS011;9124;48.144;17.098;2023-07-24T07:35:23;9.60;;;8.57;;
17997;SDS011;9124;48.144;17.098;2023-07-24T07:39:50;8.25;;;7.47;;
17997;SDS011;9124;48.144;17.098;2023-07-24T07:44:16;7.47;;;6.82;;
17997;SDS011;9124;48.144;17.098;2023-07-24T07:48:42;8.38;;;7.68;;
17997;SDS011;9124;48.144;17.098;2023-07-24T07:53:09;12.15;;;7.95;;
17997;SDS011;9124;48.144;17.098;2023-07-24T07:57:35;7.97;;;7.28;;
17997;SDS011;9124;48.144;17.098;2023-07-24T08:02:02;12.77;;;6.70;;
17997;SDS011;9124;48.144;17.098;2023-07-24T08:06:28;15.57;;;7.72;;
17997;SDS011;9124;48.144;17.098;2023-07-24T08:10:54;6.80;;;6.25;;
17997;SDS011;9124;48.144;17.098;2023-07-24T08:15:22;7.35;;;6.60;;
17997;SDS011;9124;48.144;17.098;2023-07-24T08:19:48;7.10;;;6.60;;
17997;SDS011;9124;48.144;17.098;2023-07-24T08:24:14;8.07;;;7.28;;
17997;SDS011;9124;48.144;17.098;2023-07-24T08:28:43;7.20;;;6.47;;
17997;SDS011;9124;48.144;17.098;2023-07-24T08:33:10;6.60;;;6.20;;
17997;SDS011;9124;48.144;17.098;2023-07-24T08:37:36;7.97;;;7.05;;
17997;SDS011;9124;48.144;17.098;2023-07-24T08:42:12;13.10;;;7.00;;
17997;SDS011;9124;48.144;17.098;2023-07-24T08:46:39;8.10;;;7.32;;
17997;SDS011;9124;48.144;17.098;2023-07-24T08:51:08;14.52;;;8.00;;
17997;SDS011;9124;48.144;17.098;2023-07-24T08:55:36;10.52;;;7.10;;
17997;SDS011;9124;48.144;17.098;2023-07-24T09:00:05;7.63;;;6.93;;
17997;SDS011;9124;48.144;17.098;2023-07-24T09:04:31;8.07;;;7.28;;
17997;SDS011;9124;48.144;17.098;2023-07-24T09:08:58;7.55;;;7.05;;
17997;SDS011;9124;48.144;17.098;2023-07-24T09:13:25;8.15;;;7.32;;
17997;SDS011;9124;48.144;17.098;2023-07-24T09:17:52;8.45;;;7.85;;
17997;SDS011;9124;48.144;17.098;2023-07-24T09:22:19;7.40;;;6.78;;
17997;SDS011;9124;48.144;17.098;2023-07-24T09:26:54;7.63;;;7.22;;
17997;SDS011;9124;48.144;17.098;2023-07-24T09:31:21;7.43;;;6.80;;
17997;SDS011;9124;48.144;17.098;2023-07-24T09:35:57;7.75;;;7.15;;
17997;SDS011;9124;48.144;17.098;2023-07-24T09:40:28;7.10;;;6.55;;
17997;SDS011;9124;48.144;17.098;2023-07-24T09:45:03;7.68;;;7.15;;
17997;SDS011;9124;48.144;17.098;2023-07-24T09:49:31;8.63;;;7.80;;
17997;SDS011;9124;48.144;17.098;2023-07-24T09:54:08;7.53;;;6.80;;
17997;SDS011;9124;48.144;17.098;2023-07-24T09:58:57;8.27;;;7.43;;
17997;SDS011;9124;48.144;17.098;2023-07-24T10:03:25;10.88;;;6.93;;
17997;SDS011;9124;48.144;17.098;2023-07-24T10:07:52;7.45;;;6.53;;
17997;SDS011;9124;48.144;17.098;2023-07-24T10:12:21;7.03;;;6.40;;
17997;SDS011;9124;48.144;17.098;2023-07-24T10:16:48;7.30;;;6.63;;
17997;SDS011;9124;48.144;17.098;2023-07-24T10:21:27;7.90;;;7.15;;
17997;SDS011;9124;48.144;17.098;2023-07-24T10:25:54;8.40;;;7.25;;
17997;SDS011;9124;48.144;17.098;2023-07-24T10:30:27;13.95;;;7.55;;
17997;SDS011;9124;48.144;17.098;2023-07-24T10:34:55;9.60;;;7.55;;
17997;SDS011;9124;48.144;17.098;2023-07-24T10:39:26;8.98;;;8.25;;
17997;SDS011;9124;48.144;17.098;2023-07-24T10:44:06;8.65;;;8.05;;
17997;SDS011;9124;48.144;17.098;2023-07-24T10:48:33;8.88;;;7.95;;
17997;SDS011;9124;48.144;17.098;2023-07-24T10:53:01;13.15;;;8.13;;
17997;SDS011;9124;48.144;17.098;2023-07-24T11:02:19;9.88;;;9.00;;
17997;SDS011;9124;48.144;17.098;2023-07-24T11:06:51;12.27;;;8.70;;
17997;SDS011;9124;48.144;17.098;2023-07-24T11:11:18;12.40;;;9.23;;
17997;SDS011;9124;48.144;17.098;2023-07-24T11:15:45;10.32;;;9.30;;
17997;SDS011;9124;48.144;17.098;2023-07-24T11:20:12;9.68;;;8.98;;
17997;SDS011;9124;48.144;17.098;2023-07-24T11:24:42;10.35;;;9.30;;
17997;SDS011;9124;48.144;17.098;2023-07-24T11:29:12;10.18;;;8.82;;
17997;SDS011;9124;48.144;17.098;2023-07-24T11:33:39;9.85;;;8.95;;
17997;SDS011;9124;48.144;17.098;2023-07-24T11:38:06;9.38;;;8.48;;
17997;SDS011;9124;48.144;17.098;2023-07-24T11:42:39;10.38;;;9.35;;
17997;SDS011;9124;48.144;17.098;2023-07-24T11:47:06;10.32;;;9.48;;
17997;SDS011;9124;48.144;17.098;2023-07-24T11:51:32;10.43;;;9.38;;
17997;SDS011;9124;48.144;17.098;2023-07-24T11:56:12;9.98;;;9.15;;
17997;SDS011;9124;48.144;17.098;2023-07-24T12:00:40;13.40;;;9.10;;
17997;SDS011;9124;48.144;17.098;2023-07-24T12:05:06;10.18;;;9.38;;
17997;SDS011;9124;48.144;17.098;2023-07-24T12:09:33;10.15;;;9.15;;
17997;SDS011;9124;48.144;17.098;2023-07-24T12:13:59;11.88;;;9.35;;
17997;SDS011;9124;48.144;17.098;2023-07-24T12:18:26;13.52;;;8.80;;
17997;SDS011;9124;48.144;17.098;2023-07-24T12:22:52;9.38;;;8.57;;
17997;SDS011;9124;48.144;17.098;2023-07-24T12:27:19;11.27;;;8.80;;
17997;SDS011;9124;48.144;17.098;2023-07-24T12:31:45;10.05;;;9.02;;
17997;SDS011;9124;48.144;17.098;2023-07-24T12:36:12;10.18;;;9.18;;
17997;SDS011;9124;48.144;17.098;2023-07-24T12:40:38;9.05;;;8.35;;
17997;SDS011;9124;48.144;17.098;2023-07-24T12:54:41;12.25;;;9.25;;
17997;SDS011;9124;48.144;17.098;2023-07-24T12:59:07;10.38;;;8.80;;
17997;SDS011;9124;48.144;17.098;2023-07-24T13:08:34;9.23;;;8.45;;
17997;SDS011;9124;48.144;17.098;2023-07-24T13:13:21;9.75;;;8.85;;
17997;SDS011;9124;48.144;17.098;2023-07-24T13:17:47;10.50;;;9.60;;
17997;SDS011;9124;48.144;17.098;2023-07-24T13:22:15;11.13;;;9.15;;
17997;SDS011;9124;48.144;17.098;2023-07-24T13:26:41;15.75;;;10.02;;
17997;SDS011;9124;48.144;17.098;2023-07-24T13:35:37;13.77;;;10.60;;
17997;SDS011;9124;48.144;17.098;2023-07-24T13:40:05;11.90;;;10.82;;
17997;SDS011;9124;48.144;17.098;2023-07-24T13:44:31;11.38;;;10.23;;
17997;SDS011;9124;48.144;17.098;2023-07-24T13:48:58;19.55;;;10.45;;
17997;SDS011;9124;48.144;17.098;2023-07-24T13:53:24;11.65;;;10.50;;
17997;SDS011;9124;48.144;17.098;2023-07-24T13:57:51;12.02;;;10.60;;
17997;SDS011;9124;48.144;17.098;2023-07-24T14:02:17;11.65;;;10.55;;
17997;SDS011;9124;48.144;17.098;2023-07-24T14:06:44;12.57;;;11.35;;
17997;SDS011;9124;48.144;17.098;2023-07-24T14:11:10;13.52;;;12.20;;
17997;SDS011;9124;48.144;17.098;2023-07-24T14:15:37;12.68;;;11.50;;
17997;SDS011;9124;48.144;17.098;2023-07-24T14:20:03;13.35;;;12.13;;
17997;SDS011;9124;48.144;17.098;2023-07-24T14:24:30;13.18;;;11.95;;
17997;SDS011;9124;48.144;17.098;2023-07-24T14:28:57;13.95;;;12.55;;
17997;SDS011;9124;48.144;17.098;2023-07-24T14:33:23;14.98;;;13.60;;
17997;SDS011;9124;48.144;17.098;2023-07-24T14:37:49;23.38;;;13.70;;
17997;SDS011;9124;48.144;17.098;2023-07-24T14:42:16;15.13;;;13.25;;
17997;SDS011;9124;48.144;17.098;2023-07-24T14:46:42;14.05;;;12.85;;
17997;SDS011;9124;48.144;17.098;2023-07-24T14:51:09;14.95;;;13.60;;
17997;SDS011;9124;48.144;17.098;2023-07-24T14:55:35;20.40;;;12.88;;
17997;SDS011;9124;48.144;17.098;2023-07-24T15:00:02;19.63;;;13.18;;
17997;SDS011;9124;48.144;17.098;2023-07-24T15:04:28;15.20;;;13.65;;
17997;SDS011;9124;48.144;17.098;2023-07-24T15:08:56;15.77;;;13.27;;
17997;SDS011;9124;48.144;17.098;2023-07-24T15:13:23;17.75;;;13.77;;
17997;SDS011;9124;48.144;17.098;2023-07-24T15:22:41;18.92;;;13.48;;
17997;SDS011;9124;48.144;17.098;2023-07-24T15:33:21;17.10;;;14.35;;
17997;SDS011;9124;48.144;17.098;2023-07-24T15:37:48;16.20;;;13.95;;
17997;SDS011;9124;48.144;17.098;2023-07-24T15:42:14;22.23;;;14.38;;
17997;SDS011;9124;48.144;17.098;2023-07-24T15:46:40;15.68;;;14.07;;
17997;SDS011;9124;48.144;17.098;2023-07-24T15:51:08;16.02;;;14.38;;
17997;SDS011;9124;48.144;17.098;2023-07-24T15:55:35;18.00;;;15.00;;
17997;SDS011;9124;48.144;17.098;2023-07-24T16:00:01;15.73;;;13.93;;
17997;SDS011;9124;48.144;17.098;2023-07-24T16:04:38;16.40;;;14.43;;
17997;SDS011;9124;48.144;17.098;2023-07-24T16:09:04;18.17;;;15.02;;
17997;SDS011;9124;48.144;17.098;2023-07-24T16:13:31;17.45;;;14.13;;
17997;SDS011;9124;48.144;17.098;2023-07-24T16:17:57;16.65;;;15.02;;
17997;SDS011;9124;48.144;17.098;2023-07-24T16:22:23;19.17;;;15.80;;
17997;SDS011;9124;48.144;17.098;2023-07-24T16:26:51;18.40;;;15.65;;
17997;SDS011;9124;48.144;17.098;2023-07-24T16:31:17;18.85;;;15.43;;
17997;SDS011;9124;48.144;17.098;2023-07-24T16:35:44;17.42;;;15.73;;
17997;SDS011;9124;48.144;17.098;2023-07-24T16:40:10;16.33;;;14.70;;
17997;SDS011;9124;48.144;17.098;2023-07-24T16:44:37;21.17;;;14.73;;
17997;SDS011;9124;48.144;17.098;2023-07-24T16:49:03;18.80;;;16.17;;
17997;SDS011;9124;48.144;17.098;2023-07-24T16:53:35;18.33;;;14.90;;
17997;SDS011;9124;48.144;17.098;2023-07-24T17:02:36;17.65;;;15.27;;
17997;SDS011;9124;48.144;17.098;2023-07-24T17:11:39;16.08;;;14.48;;
17997;SDS011;9124;48.144;17.098;2023-07-24T17:16:05;17.85;;;14.27;;
17997;SDS011;9124;48.144;17.098;2023-07-24T17:20:32;21.58;;;14.90;;
17997;SDS011;9124;48.144;17.098;2023-07-24T17:24:58;18.25;;;14.93;;
17997;SDS011;9124;48.144;17.098;2023-07-24T17:29:24;18.70;;;14.77;;
17997;SDS011;9124;48.144;17.098;2023-07-24T17:33:51;16.88;;;15.18;;
17997;SDS011;9124;48.144;17.098;2023-07-24T17:38:17;16.20;;;14.23;;
17997;SDS011;9124;48.144;17.098;2023-07-24T17:47:35;15.10;;;13.80;;
17997;SDS011;9124;48.144;17.098;2023-07-24T17:52:02;18.67;;;14.18;;
17997;SDS011;9124;48.144;17.098;2023-07-24T17:56:28;20.30;;;13.32;;
17997;SDS011;9124;48.144;17.098;2023-07-24T18:00:55;18.52;;;13.60;;
17997;SDS011;9124;48.144;17.098;2023-07-24T18:05:21;17.27;;;13.27;;
17997;SDS011;9124;48.144;17.098;2023-07-24T18:09:48;17.65;;;12.90;;
17997;SDS011;9124;48.144;17.098;2023-07-24T18:14:14;17.92;;;12.88;;
17997;SDS011;9124;48.144;17.098;2023-07-24T18:18:40;24.25;;;11.95;;
17997;SDS011;9124;48.144;17.098;2023-07-24T18:23:07;17.60;;;11.70;;
17997;SDS011;9124;48.144;17.098;2023-07-24T18:27:33;13.93;;;10.95;;
17997;SDS011;9124;48.144;17.098;2023-07-24T18:32:00;13.55;;;10.48;;
17997;SDS011;9124;48.144;17.098;2023-07-24T18:36:27;11.82;;;10.65;;
17997;SDS011;9124;48.144;17.098;2023-07-24T18:40:54;18.42;;;10.75;;
17997;SDS011;9124;48.144;17.098;2023-07-24T18:45:20;11.27;;;10.27;;
17997;SDS011;9124;48.144;17.098;2023-07-24T18:49:47;12.43;;;9.77;;
17997;SDS011;9124;48.144;17.098;2023-07-24T19:05:18;19.65;;;6.15;;
17997;SDS011;9124;48.144;17.098;2023-07-24T19:09:44;19.80;;;5.45;;
17997;SDS011;9124;48.144;17.098;2023-07-24T19:14:10;24.73;;;6.00;;
17997;SDS011;9124;48.144;17.098;2023-07-24T19:18:36;22.35;;;6.28;;
17997;SDS011;9124;48.144;17.098;2023-07-24T19:23:04;14.23;;;5.57;;
17997;SDS011;9124;48.144;17.098;2023-07-24T19:27:30;16.25;;;6.00;;
17997;SDS011;9124;48.144;17.098;2023-07-24T19:31:57;14.52;;;5.80;;
17997;SDS011;9124;48.144;17.098;2023-07-24T19:36:24;10.70;;;6.30;;
17997;SDS011;9124;48.144;17.098;2023-07-24T19:40:54;4.38;;;3.97;;
17997;SDS011;9124;48.144;17.098;2023-07-24T19:45:27;3.40;;;3.20;;
17997;SDS011;9124;48.144;17.098;2023-07-24T19:49:54;4.18;;;2.90;;
17997;SDS011;9124;48.144;17.098;2023-07-24T19:54:20;3.33;;;3.03;;
17997;SDS011;9124;48.144;17.098;2023-07-24T20:03:38;3.25;;;2.92;;
17997;SDS011;9124;48.144;17.098;2023-07-24T20:08:04;2.97;;;2.78;;
17997;SDS011;9124;48.144;17.098;2023-07-24T20:12:31;3.17;;;2.97;;
17997;SDS011;9124;48.144;17.098;2023-07-24T20:16:57;5.75;;;3.72;;
17997;SDS011;9124;48.144;17.098;2023-07-24T20:27:42;6.18;;;4.32;;
17997;SDS011;9124;48.144;17.098;2023-07-24T20:32:08;4.55;;;4.15;;
17997;SDS011;9124;48.144;17.098;2023-07-24T20:36:34;6.03;;;4.80;;
17997;SDS011;9124;48.144;17.098;2023-07-24T20:41:01;3.97;;;3.67;;
17997;SDS011;9124;48.144;17.098;2023-07-24T21:04:07;6.47;;;5.57;;
17997;SDS011;9124;48.144;17.098;2023-07-24T21:13:25;5.40;;;5.03;;
17997;SDS011;9124;48.144;17.098;2023-07-24T21:22:43;6.95;;;5.00;;
17997;SDS011;9124;48.144;17.098;2023-07-24T21:27:10;5.30;;;5.00;;
17997;SDS011;9124;48.144;17.098;2023-07-24T21:31:37;5.68;;;5.18;;
17997;SDS011;9124;48.144;17.098;2023-07-24T21:36:04;6.20;;;5.18;;
17997;SDS011;9124;48.144;17.098;2023-07-24T21:40:30;6.03;;;5.60;;
17997;SDS011;9124;48.144;17.098;2023-07-24T21:44:57;6.32;;;5.68;;
17997;SDS011;9124;48.144;17.098;2023-07-24T21:49:23;5.13;;;4.80;;
17997;SDS011;9124;48.144;17.098;2023-07-24T22:03:29;5.68;;;5.22;;
17997;SDS011;9124;48.144;17.098;2023-07-24T22:07:56;6.22;;;5.72;;
17997;SDS011;9124;48.144;17.098;2023-07-24T22:12:28;7.57;;;5.63;;
17997;SDS011;9124;48.144;17.098;2023-07-24T22:17:00;5.75;;;5.22;;
17997;SDS011;9124;48.144;17.098;2023-07-24T22:21:27;10.73;;;5.28;;
17997;SDS011;9124;48.144;17.098;2023-07-24T22:36:57;5.55;;;5.15;;
17997;SDS011;9124;48.144;17.098;2023-07-24T22:41:23;5.53;;;5.03;;
17997;SDS011;9124;48.144;17.098;2023-07-24T22:45:49;5.40;;;4.63;;
17997;SDS011;9124;48.144;17.098;2023-07-24T22:50:16;4.93;;;4.63;;
17997;SDS011;9124;48.144;17.098;2023-07-24T22:54:42;4.95;;;4.55;;
17997;SDS011;9124;48.144;17.098;2023-07-24T22:59:16;4.95;;;4.65;;
17997;SDS011;9124;48.144;17.098;2023-07-24T23:03:48;4.65;;;4.35;;
17997;SDS011;9124;48.144;17.098;2023-07-24T23:13:07;4.88;;;4.47;;
17997;SDS011;9124;48.144;17.098;2023-07-24T23:17:34;5.75;;;4.72;;
17997;SDS011;9124;48.144;17.098;2023-07-24T23:22:00;4.18;;;3.88;;
17997;SDS011;9124;48.144;17.098;2023-07-24T23:26:26;6.88;;;4.25;;
17997;SDS011;9124;48.144;17.098;2023-07-24T23:30:52;4.80;;;4.38;;
17997;SDS011;9124;48.144;17.098;2023-07-24T23:35:19;4.32;;;4.13;;
17997;SDS011;9124;48.144;17.098;2023-07-24T23:39:45;4.05;;;3.83;;
17997;SDS011;9124;48.144;17.098;2023-07-24T23:44:12;4.50;;;4.18;;
17997;SDS011;9124;48.144;17.098;2023-07-24T23:48:38;4.57;;;4.28;;
17997;SDS011;9124;48.144;17.098;2023-07-24T23:53:06;4.20;;;3.90;;
